Página principal
METAR-TAF:

METAR-TAF

Aeroportos :

Rabat, Marrocos

latitude: 34-03N, longitude: 006-46W, altura: 84 m

Observação actual do tempo

O boletim foi feito há 30 minutos, às 13:00 UTC
Vento 13 kt de oeste
Temperatura 17°C
Humidade 72%
Pressão 1010 hPa
Visibilidade: 8000 m
Poucas nuvensa uma altura de 1000 ft
Nuvens dispersasa uma altura de 1600 ft

METAR: GMME 211300Z 27013KT 8000 FEW010 SCT016 17/12 Q1010 NOSIG

Hora: 13:30 (13:30 UTC)

Previsão

O boletim foi feito há 27 horas e 0 minutos, às 10:30 UTC
Previsão válida de 20 às 12 UTC a 21 às 18 UTC
Vento 10 kt de norte
Visibilidade: 8000 m
Temporariamente
de 20 às 19 UTC a 21 às 10 UTC
Vento 6 kt de sudeste
Visibilidade: 2000 m
Nuvens fragmentadasa uma altura de 600 ft
neblina
Probabilidade 40% :
Temporariamente
de 20 às 23 UTC a 21 às 08 UTC
Visibilidade: 0600 m
nevoeiro

TAF: GMME 201030Z 2012/2118 36010KT 8000 NSC TEMPO 2019/2110 14006KT 2000 BR BKN006 PROB40 TEMPO 2023/2108 0600 FG

Observações e previsões do tempo de mais de 4000 aeroportos (mensagens METAR e TAF).

As estações disponíveis são os pontos amarelos e vermelhos sobre o mapa.

Mova o rato sobre o mapa para ver o nome da estação.

Depois clique no ponto para visualizar as observações e previsões meteorológicas.

Para alterar o mapa : clique nos botões verdes com uma cruz preta para aumentar o zoom; no botão verde com uma pitada de zoom; ou nas setas verdes para mapas adjacentes.


METAR-TAF: